| time (UTC) | temp F | wind direction | speed MPH | gust MPH | rain 1hr in | rain 24hr in | rain mn in | humidity % | barometer mb |
| 20260502221316 | 76 | 0.0 | 0.0 | 0.00 | 0.00 | 0.00 | 82 | ||
| 20260502220316 | 76 | 0.0 | 0.0 | 0.00 | 0.00 | 0.00 | 83 | ||
| 20260502215316 | 76 | 0.0 | 0.0 | 0.00 | 0.00 | 0.00 | 84 | ||
| 20260502214316 | 76 | 0.0 | 0.0 | 0.00 | 0.00 | 0.00 | 82 | ||
| 20260502213316 | 76 | 0.0 | 0.0 | 0.00 | 0.00 | 0.00 | 81 | ||
| 20260502212316 | 76 | 0.0 | 0.0 | 0.00 | 0.00 | 0.00 | 82 | ||
| 20260502211316 | 76 | 0.0 | 0.0 | 0.00 | 0.00 | 0.00 | 83 | ||
| 20260502210316 | 76 | 0.0 | 0.0 | 0.00 | 0.00 | 0.00 | 84 | ||
| 20260502205315 | 76 | 0.0 | 0.0 | 0.00 | 0.00 | 0.00 | 85 | ||
| 20260502204315 | 76 | 0.0 | 0.0 | 0.00 | 0.00 | 0.00 | 85 | ||
| 20260502203315 | 76 | 0.0 | 0.0 | 0.00 | 0.00 | 0.00 | 85 | ||
| 20260502202315 | 76 | 0.0 | 0.0 | 0.00 | 0.00 | 0.00 | 86 | ||
| 20260502201315 | 76 | 0.0 | 0.0 | 0.00 | 0.00 | 0.00 | 88 | ||
| 20260502200315 | 76 | 0.0 | 0.0 | 0.00 | 0.00 | 0.00 | 88 | ||
| 20260502195315 | 76 | 0.0 | 0.0 | 0.00 | 0.00 | 0.00 | 89 | ||
| 20260502194315 | 76 | 0.0 | 0.0 | 0.00 | 0.00 | 0.00 | 89 | ||
| 20260502193315 | 76 | 0.0 | 0.0 | 0.00 | 0.00 | 0.00 | 89 | ||
| 20260502192315 | 76 | 0.0 | 0.0 | 0.00 | 0.00 | 0.00 | 89 | ||
| 20260502191315 | 76 | 0.0 | 0.0 | 0.00 | 0.00 | 0.00 | 87 | ||
| 20260502190315 | 76 | 0.0 | 0.0 | 0.00 | 0.00 | 0.00 | 87 | ||
| 20260502185315 | 76 | 0.0 | 0.0 | 0.00 | 0.00 | 0.00 | 88 | ||
| 20260502184315 | 76 | 0.0 | 0.0 | 0.00 | 0.00 | 0.00 | 86 | ||
| 20260502183315 | 76 | 0.0 | 0.0 | 0.00 | 0.00 | 0.00 | 85 | ||
| 20260502182315 | 77 | 0.0 | 0.0 | 0.00 | 0.00 | 0.00 | 84 | ||
| 20260502181315 | 77 | 0.0 | 0.0 | 0.00 | 0.00 | 0.00 | 83 | ||
| 20260502180314 | 77 | 0.0 | 0.0 | 0.00 | 0.00 | 0.00 | 84 | ||
| 20260502170314 | 78 | 0.0 | 0.0 | 0.00 | 0.00 | 0.00 | 85 | ||
| 20260502164314 | 78 | 0.0 | 0.0 | 0.00 | 0.00 | 0.00 | 86 | ||
| 20260502163314 | 78 | 0.0 | 0.0 | 0.00 | 0.00 | 0.00 | 88 | ||
| 20260502162314 | 77 | 0.0 | 0.0 | 0.00 | 0.00 | 0.00 | 87 | ||
| 20260502161314 | 78 | 0.0 | 0.0 | 0.00 | 0.00 | 0.00 | 85 | ||
| 20260502160314 | 78 | 0.0 | 0.0 | 0.00 | 0.00 | 0.00 | 81 | ||
| 20260502152315 | 80 | 0.0 | 0.0 | 0.00 | 0.00 | 0.00 | 73 | ||
| 20260502151314 | 80 | 0.0 | 0.0 | 0.00 | 0.00 | 0.00 | 73 | ||
| 20260502150314 | 80 | 0.0 | 0.0 | 0.00 | 0.00 | 0.00 | 72 | ||
| 20260502130314 | 81 | 0.0 | 0.0 | 0.00 | 0.00 | 0.00 | 68 | ||
| 20260502123314 | 81 | 0.0 | 0.0 | 0.00 | 0.00 | 0.00 | 69 | ||
| 20260502122314 | 81 | 0.0 | 0.0 | 0.00 | 0.00 | 0.00 | 68 | ||
| 20260502121314 | 81 | 0.0 | 0.0 | 0.00 | 0.00 | 0.00 | 68 | ||
| 20260502120314 | 82 | 0.0 | 0.0 | 0.00 | 0.00 | 0.00 | 68 | ||
| 20260502115314 | 81 | 0.0 | 0.0 | 0.00 | 0.00 | 0.00 | 70 | ||
| 20260502114314 | 80 | 0.0 | 0.0 | 0.00 | 0.00 | 0.00 | 73 | ||
| 20260502113314 | 81 | 0.0 | 0.0 | 0.00 | 0.00 | 0.00 | 72 | ||
| 20260502112313 | 82 | 0.0 | 0.0 | 0.00 | 0.00 | 0.00 | 69 | ||
| 20260502111313 | 81 | 0.0 | 0.0 | 0.00 | 0.00 | 0.00 | 72 | ||
| 20260502110313 | 82 | 0.0 | 0.0 | 0.00 | 0.00 | 0.00 | 68 | ||
| 20260502105313 | 82 | 0.0 | 0.0 | 0.00 | 0.00 | 0.00 | 68 | ||
| 20260502104314 | 83 | 0.0 | 0.0 | 0.00 | 0.00 | 0.00 | 66 | ||
| 20260502103313 | 82 | 0.0 | 0.0 | 0.00 | 0.00 | 0.00 | 68 | ||
| 20260502102313 | 82 | 0.0 | 0.0 | 0.00 | 0.00 | 0.00 | 68 | ||
| 20260502101313 | 82 | 0.0 | 0.0 | 0.00 | 0.00 | 0.00 | 64 | ||
| 20260502100313 | 83 | 0.0 | 0.0 | 0.00 | 0.00 | 0.00 | 63 | ||
| 20260502091313 | 83 | 0.0 | 0.0 | 0.00 | 0.00 | 0.00 | 59 | ||
| 20260502090313 | 83 | 0.0 | 0.0 | 0.00 | 0.00 | 0.00 | 63 | ||
| 20260502071312 | 84 | 0.0 | 0.0 | 0.00 | 0.00 | 0.00 | 57 | ||
| 20260502070312 | 84 | 0.0 | 0.0 | 0.00 | 0.00 | 0.00 | 58 | ||
| 20260502065312 | 85 | 0.0 | 0.0 | 0.00 | 0.00 | 0.00 | 57 | ||
| 20260502064312 | 87 | 0.0 | 0.0 | 0.00 | 0.00 | 0.00 | 56 | ||
| 20260502063312 | 91 | 0.0 | 0.0 | 0.00 | 0.00 | 0.00 | 44 | ||
| 20260502062312 | 92 | 0.0 | 0.0 | 0.00 | 0.00 | 0.00 | 29 | ||
| 20260502061312 | 93 | 0.0 | 0.0 | 0.00 | 0.00 | 0.00 | 27 | ||
| 20260502060312 | 95 | 0.0 | 0.0 | 0.00 | 0.00 | 0.00 | 25 | ||
| 20260502055312 | 93 | 0.0 | 0.0 | 0.00 | 0.00 | 0.00 | 27 | ||
| 20260502054312 | 93 | 0.0 | 0.0 | 0.00 | 0.00 | 0.00 | 28 | ||
| 20260502053312 | 95 | 0.0 | 0.0 | 0.00 | 0.00 | 0.00 | 28 | ||
| 20260502052312 | 93 | 0.0 | 0.0 | 0.00 | 0.00 | 0.00 | 30 | ||
| 20260502051312 | 95 | 0.0 | 0.0 | 0.00 | 0.00 | 0.00 | 25 | ||
| 20260502050312 | 92 | 0.0 | 0.0 | 0.00 | 0.00 | 0.00 | 31 | ||
| 20260502045312 | 92 | 0.0 | 0.0 | 0.00 | 0.00 | 0.00 | 33 | ||
| 20260502044312 | 93 | 0.0 | 0.0 | 0.00 | 0.00 | 0.00 | 30 | ||
| 20260502043312 | 91 | 0.0 | 0.0 | 0.00 | 0.00 | 0.00 | 35 | ||
| 20260502042312 | 91 | 0.0 | 0.0 | 0.00 | 0.00 | 0.00 | 33 | ||
| 20260502041311 | 90 | 0.0 | 0.0 | 0.00 | 0.00 | 0.00 | 37 | ||
| 20260502040312 | 88 | 0.0 | 0.0 | 0.00 | 0.00 | 0.00 | 41 | ||
| 20260502035311 | 90 | 0.0 | 0.0 | 0.00 | 0.00 | 0.00 | 38 | ||
| 20260502034311 | 89 | 0.0 | 0.0 | 0.00 | 0.00 | 0.00 | 41 | ||
| 20260502033311 | 87 | 0.0 | 0.0 | 0.00 | 0.00 | 0.00 | 42 | ||
| 20260502032311 | 88 | 0.0 | 0.0 | 0.00 | 0.00 | 0.00 | 42 | ||
| 20260502031311 | 88 | 0.0 | 0.0 | 0.00 | 0.00 | 0.00 | 42 | ||
| 20260502030311 | 90 | 0.0 | 0.0 | 0.00 | 0.00 | 0.00 | 40 | ||
| 20260502025311 | 90 | 0.0 | 0.0 | 0.00 | 0.00 | 0.00 | 40 | ||
| 20260502024311 | 87 | 0.0 | 0.0 | 0.00 | 0.00 | 0.00 | 42 | ||
| 20260502023311 | 89 | 0.0 | 0.0 | 0.00 | 0.00 | 0.00 | 41 | ||
| 20260502022311 | 89 | 0.0 | 0.0 | 0.00 | 0.00 | 0.00 | 41 | ||
| 20260502021311 | 87 | 0.0 | 0.0 | 0.00 | 0.00 | 0.00 | 46 | ||
| 20260502020311 | 85 | 0.0 | 0.0 | 0.00 | 0.00 | 0.00 | 48 | ||
| 20260502015311 | 84 | 0.0 | 0.0 | 0.00 | 0.00 | 0.00 | 53 | ||
| 20260502014311 | 83 | 0.0 | 0.0 | 0.00 | 0.00 | 0.00 | 55 | ||
| 20260502013311 | 83 | 0.0 | 0.0 | 0.00 | 0.00 | 0.00 | 55 | ||
| 20260502012311 | 82 | 0.0 | 0.0 | 0.00 | 0.00 | 0.00 | 58 | ||
| 20260502011311 | 81 | 0.0 | 0.0 | 0.00 | 0.00 | 0.00 | 59 | ||
| 20260502010311 | 81 | 0.0 | 0.0 | 0.00 | 0.00 | 0.00 | 59 | ||
| 20260502005311 | 81 | 0.0 | 0.0 | 0.00 | 0.00 | 0.00 | 59 | ||
| 20260502004311 | 81 | 0.0 | 0.0 | 0.00 | 0.00 | 0.00 | 58 | ||
| 20260502003311 | 81 | 0.0 | 0.0 | 0.00 | 0.00 | 0.00 | 59 | ||
| 20260502002311 | 80 | 0.0 | 0.0 | 0.00 | 0.00 | 0.00 | 61 | ||
| 20260502001311 | 80 | 0.0 | 0.0 | 0.00 | 0.00 | 0.00 | 65 | ||
| 20260502000311 | 80 | 0.0 | 0.0 | 0.00 | 0.00 | 0.00 | 62 | ||
| 20260501235311 | 80 | 0.0 | 0.0 | 0.00 | 0.00 | 0.00 | 63 | ||
| 20260501234311 | 79 | 0.0 | 0.0 | 0.00 | 0.00 | 0.00 | 64 | ||
| 20260501233311 | 79 | 0.0 | 0.0 | 0.00 | 0.00 | 0.00 | 65 | ||
| 20260501232311 | 78 | 0.0 | 0.0 | 0.00 | 0.00 | 0.00 | 65 | ||
| 20260501231311 | 79 | 0.0 | 0.0 | 0.00 | 0.00 | 0.00 | 64 | ||
| 20260501230311 | 79 | 0.0 | 0.0 | 0.00 | 0.00 | 0.00 | 65 | ||
| 20260501225311 | 79 | 0.0 | 0.0 | 0.00 | 0.00 | 0.00 | 67 | ||
| 20260501224311 | 77 | 0.0 | 0.0 | 0.00 | 0.00 | 0.00 | 77 | ||
| 20260501223311 | 75 | 0.0 | 0.0 | 0.00 | 0.00 | 0.00 | 81 | ||
| 20260501222311 | 75 | 0.0 | 0.0 | 0.00 | 0.00 | 0.00 | 83 |